Time;durP1;ratioP1;P1;durP2;ratioP2;P2;SDS_P1;SDS_P2;PMS_P1;PMS_P2;Temp;Humidity;BMP_temperature;BMP_pressure;BME280_temperature;BME280_humidity;BME280_pressure;Samples;Min_cycle;Max_cycle;Signal;HPM_P1;HPM_P2
2022/07/04 00:01:58;;;;;;;2.60;2.50;;;;;;;;;;4986923;28;20508;-90
2022/07/04 00:04:56;;;;;;;2.80;2.70;;;;;;;;;;4987844;28;20934;-90
2022/07/04 00:07:22;;;;;;;2.27;2.20;;;;;;;;;;4981595;28;20927;-90
2022/07/04 00:09:50;;;;;;;2.70;2.63;;;;;;;;;;4975851;28;20432;-90
2022/07/04 00:12:17;;;;;;;2.60;2.33;;;;;;;;;;4995915;28;20436;-91
2022/07/04 00:14:46;;;;;;;3.23;2.67;;;;;;;;;;4980171;28;20977;-91
2022/07/04 00:17:12;;;;;;;2.23;2.17;;;;;;;;;;4988540;28;20464;-91
2022/07/04 00:19:38;;;;;;;2.60;2.60;;;;;;;;;;4972413;28;20492;-91
2022/07/04 00:22:15;;;;;;;2.53;2.40;;;;;;;;;;4991093;28;20452;-91
2022/07/04 00:24:41;;;;;;;2.67;2.57;;;;;;;;;;4983725;28;20476;-91
2022/07/04 00:27:07;;;;;;;2.50;2.50;;;;;;;;;;5000907;28;20821;-91
2022/07/04 00:29:33;;;;;;;2.60;2.33;;;;;;;;;;4983931;28;20962;-90
2022/07/04 00:31:59;;;;;;;5.93;2.37;;;;;;;;;;5010345;28;20446;-90
2022/07/04 00:34:33;;;;;;;2.30;2.20;;;;;;;;;;4980553;28;20475;-92
2022/07/04 00:37:19;;;;;;;2.10;2.10;;;;;;;;;;4978301;28;20921;-91
2022/07/04 00:39:45;;;;;;;3.33;2.67;;;;;;;;;;4978460;28;20478;-90
2022/07/04 00:42:11;;;;;;;2.77;2.67;;;;;;;;;;4995671;28;20435;-91
2022/07/04 00:48:20;;;;;;;;;;;;;;;;;;;;;
2022/07/04 00:50:47;;;;;;;2.53;2.40;;;;;;;;;;4999976;28;20436;-90
2022/07/04 00:53:46;;;;;;;2.33;2.23;;;;;;;;;;4977360;28;20453;-91
2022/07/04 00:56:12;;;;;;;3.40;2.37;;;;;;;;;;4994388;28;20423;-90
2022/07/04 00:58:38;;;;;;;4.33;2.30;;;;;;;;;;4994368;28;20472;-90
2022/07/04 01:01:04;;;;;;;2.50;2.40;;;;;;;;;;4995596;28;20452;-91
2022/07/04 01:03:30;;;;;;;2.60;2.50;;;;;;;;;;5001074;28;20487;-90
2022/07/04 01:05:56;;;;;;;3.07;2.97;;;;;;;;;;5020387;28;20408;-90
2022/07/04 01:08:22;;;;;;;3.10;3.00;;;;;;;;;;5013427;28;20424;-90
2022/07/04 01:10:48;;;;;;;3.53;2.67;;;;;;;;;;4990160;28;20460;-90
2022/07/04 01:13:21;;;;;;;3.30;3.10;;;;;;;;;;4996793;28;20463;-90
2022/07/04 01:15:47;;;;;;;2.20;2.20;;;;;;;;;;5016475;28;20834;-89
2022/07/04 01:18:13;;;;;;;2.83;2.73;;;;;;;;;;5024262;28;20475;-90
2022/07/04 01:20:39;;;;;;;2.67;2.57;;;;;;;;;;5016430;28;20436;-90
2022/07/04 01:23:06;;;;;;;2.90;2.70;;;;;;;;;;5021882;28;20419;-89
2022/07/04 01:25:32;;;;;;;2.30;2.30;;;;;;;;;;4998757;28;20423;-90
2022/07/04 01:28:06;;;;;;;2.53;2.43;;;;;;;;;;4995955;28;20948;-89
2022/07/04 01:30:33;;;;;;;3.20;3.10;;;;;;;;;;4958823;28;20453;-91
2022/07/04 01:32:59;;;;;;;2.70;2.60;;;;;;;;;;4993381;28;20435;-90
2022/07/04 01:35:25;;;;;;;3.00;2.90;;;;;;;;;;4977476;28;20420;-91
2022/07/04 01:37:51;;;;;;;2.47;2.37;;;;;;;;;;4999749;28;20891;-90
2022/07/04 01:40:17;;;;;;;2.20;2.20;;;;;;;;;;5013045;28;20912;-92
2022/07/04 01:42:43;;;;;;;2.13;1.90;;;;;;;;;;4979642;28;20431;-91
2022/07/04 01:45:11;;;;;;;2.77;2.57;;;;;;;;;;5012930;28;20993;-91
2022/07/04 01:47:40;;;;;;;2.53;2.43;;;;;;;;;;4995999;28;20439;-91
2022/07/04 01:50:07;;;;;;;2.57;2.57;;;;;;;;;;4994597;28;20472;-91
2022/07/04 01:52:37;;;;;;;2.67;2.57;;;;;;;;;;4986092;28;20547;-92
2022/07/04 01:55:03;;;;;;;2.40;2.40;;;;;;;;;;4988148;28;20436;-91
2022/07/04 01:57:29;;;;;;;2.50;2.50;;;;;;;;;;4993641;28;20447;-92
2022/07/04 02:02:39;;;;;;;2.67;2.50;;;;;;;;;;4996188;28;20431;-91
2022/07/04 02:05:06;;;;;;;3.73;2.80;;;;;;;;;;4981165;28;20475;-91
2022/07/04 02:07:32;;;;;;;2.60;2.60;;;;;;;;;;5004565;28;20550;-91
2022/07/04 02:10:00;;;;;;;2.80;2.80;;;;;;;;;;4972995;28;20488;-92
2022/07/04 02:15:11;;;;;;;4.70;2.50;;;;;;;;;;4992027;28;20517;-92
2022/07/04 02:17:37;;;;;;;2.13;2.13;;;;;;;;;;4995328;28;20526;-91
2022/07/04 02:20:06;;;;;;;2.70;2.50;;;;;;;;;;5009926;28;20471;-91
2022/07/04 02:23:01;;;;;;;2.60;2.50;;;;;;;;;;4978821;28;20454;-90
2022/07/04 02:25:27;;;;;;;5.33;2.70;;;;;;;;;;5006811;28;20407;-91
2022/07/04 02:28:00;;;;;;;2.17;2.07;;;;;;;;;;4975884;28;20905;-91
2022/07/04 02:30:26;;;;;;;3.03;3.03;;;;;;;;;;4975873;28;20436;-91
2022/07/04 02:32:52;;;;;;;2.40;2.33;;;;;;;;;;4993637;28;20518;-91
2022/07/04 02:35:18;;;;;;;2.80;2.80;;;;;;;;;;4976348;28;20452;-92
2022/07/04 02:37:44;;;;;;;3.10;2.90;;;;;;;;;;5008411;28;20447;-91
2022/07/04 02:40:12;;;;;;;3.00;2.83;;;;;;;;;;5011369;28;20910;-92
2022/07/04 02:42:38;;;;;;;2.40;2.30;;;;;;;;;;4989928;28;20467;-91
2022/07/04 02:45:05;;;;;;;2.40;2.30;;;;;;;;;;4981686;28;20436;-91
2022/07/04 02:47:31;;;;;;;2.67;2.67;;;;;;;;;;5003675;28;20421;-91
2022/07/04 02:50:04;;;;;;;3.27;3.07;;;;;;;;;;4971708;28;20445;-91
2022/07/04 02:52:48;;;;;;;2.33;2.30;;;;;;;;;;4973286;28;20444;-91
2022/07/04 02:55:14;;;;;;;2.70;2.70;;;;;;;;;;4972819;28;20931;-91
2022/07/04 02:57:40;;;;;;;2.97;2.87;;;;;;;;;;5005336;28;20445;-91
2022/07/04 03:00:06;;;;;;;2.87;2.57;;;;;;;;;;4997464;28;20843;-90
2022/07/04 03:02:32;;;;;;;3.00;3.00;;;;;;;;;;5010541;28;20992;-91
2022/07/04 03:05:01;;;;;;;2.77;2.77;;;;;;;;;;4988618;28;20797;-92
2022/07/04 03:07:27;;;;;;;2.77;2.67;;;;;;;;;;5000354;28;20963;-91
2022/07/04 03:09:56;;;;;;;2.47;2.27;;;;;;;;;;4993267;28;20428;-91
2022/07/04 03:12:28;;;;;;;2.97;2.70;;;;;;;;;;4998803;28;20436;-91
2022/07/04 03:14:54;;;;;;;2.80;2.60;;;;;;;;;;4984783;28;20453;-91
2022/07/04 03:17:20;;;;;;;3.40;2.90;;;;;;;;;;4983636;28;20443;-91
2022/07/04 03:19:46;;;;;;;2.60;2.40;;;;;;;;;;4997220;28;20514;-91
2022/07/04 03:22:12;;;;;;;4.23;2.87;;;;;;;;;;4988828;28;20515;-91
2022/07/04 03:24:41;;;;;;;2.90;2.80;;;;;;;;;;4996559;28;20417;-91
2022/07/04 03:27:24;;;;;;;2.87;2.77;;;;;;;;;;4994921;28;20444;-91
2022/07/04 03:29:51;;;;;;;2.53;2.53;;;;;;;;;;4983894;28;20452;-89
2022/07/04 03:32:17;;;;;;;3.17;2.70;;;;;;;;;;5022235;28;20427;-87
2022/07/04 03:34:51;;;;;;;3.13;2.93;;;;;;;;;;5001012;28;21016;-88
2022/07/04 03:37:17;;;;;;;3.30;3.10;;;;;;;;;;4986757;28;20435;-88
2022/07/04 03:39:46;;;;;;;2.90;2.80;;;;;;;;;;5000674;28;20480;-88
2022/07/04 03:42:12;;;;;;;2.60;2.50;;;;;;;;;;5005334;28;20494;-87
2022/07/04 03:44:44;;;;;;;2.40;2.40;;;;;;;;;;4990282;28;20444;-88
2022/07/04 03:47:19;;;;;;;3.00;2.83;;;;;;;;;;4986257;28;20455;-89
2022/07/04 03:49:45;;;;;;;3.40;3.30;;;;;;;;;;4976704;28;20440;-88
2022/07/04 03:52:13;;;;;;;2.67;2.67;;;;;;;;;;5006473;28;20428;-88
2022/07/04 03:54:39;;;;;;;2.57;2.57;;;;;;;;;;4979539;28;20528;-89
2022/07/04 03:57:05;;;;;;;3.00;2.90;;;;;;;;;;5009604;28;20467;-88
2022/07/04 03:59:31;;;;;;;3.30;3.00;;;;;;;;;;4993799;28;20567;-88
2022/07/04 04:01:57;;;;;;;2.60;2.50;;;;;;;;;;4997446;28;20472;-88
2022/07/04 04:07:14;;;;;;;3.00;3.00;;;;;;;;;;4969284;28;20436;-88
2022/07/04 04:09:40;;;;;;;3.10;2.90;;;;;;;;;;5007092;28;21018;-87
2022/07/04 04:12:09;;;;;;;3.10;3.00;;;;;;;;;;4977103;28;20441;-89
2022/07/04 04:14:41;;;;;;;3.10;3.00;;;;;;;;;;4996827;28;20482;-88
2022/07/04 04:17:07;;;;;;;3.20;3.00;;;;;;;;;;4955768;28;20478;-88
2022/07/04 04:19:33;;;;;;;4.33;3.10;;;;;;;;;;4971435;28;20473;-89
2022/07/04 04:21:59;;;;;;;3.33;3.23;;;;;;;;;;5008170;28;20432;-88
2022/07/04 04:24:25;;;;;;;3.07;2.90;;;;;;;;;;4975022;28;20437;-89
2022/07/04 04:26:51;;;;;;;3.23;3.10;;;;;;;;;;5010227;28;20462;-88
2022/07/04 04:29:17;;;;;;;2.90;2.90;;;;;;;;;;4980291;28;20433;-87
2022/07/04 04:31:43;;;;;;;3.00;2.90;;;;;;;;;;4985254;28;20773;-89
2022/07/04 04:34:09;;;;;;;3.83;3.67;;;;;;;;;;4977446;28;20854;-87
2022/07/04 04:36:35;;;;;;;4.00;3.80;;;;;;;;;;4991292;28;20483;-87
2022/07/04 04:39:02;;;;;;;7.60;3.70;;;;;;;;;;4981897;28;20469;-88
2022/07/04 04:41:28;;;;;;;3.87;3.53;;;;;;;;;;4975928;28;20464;-88
2022/07/04 04:43:54;;;;;;;3.33;3.13;;;;;;;;;;4993448;28;20449;-88
2022/07/04 04:46:20;;;;;;;3.40;3.20;;;;;;;;;;4974961;28;21170;-88
2022/07/04 04:48:46;;;;;;;3.97;3.67;;;;;;;;;;4989919;28;20527;-88
2022/07/04 04:51:12;;;;;;;3.50;3.40;;;;;;;;;;4983587;28;20460;-87
2022/07/04 04:53:38;;;;;;;4.43;4.13;;;;;;;;;;4974941;28;20457;-88
2022/07/04 04:56:04;;;;;;;3.60;3.40;;;;;;;;;;4981253;28;20484;-87
2022/07/04 04:58:30;;;;;;;10.77;4.43;;;;;;;;;;4973236;28;20504;-87
2022/07/04 05:00:56;;;;;;;3.40;3.30;;;;;;;;;;4970918;28;20437;-87
2022/07/04 05:03:22;;;;;;;4.07;3.47;;;;;;;;;;4639350;28;10000493;-87
2022/07/04 05:08:31;;;;;;;3.20;3.10;;;;;;;;;;3181456;26;20541;-87
2022/07/04 05:10:57;;;;;;;10.63;3.90;;;;;;;;;;4947345;28;20529;-87
2022/07/04 05:13:23;;;;;;;3.47;3.00;;;;;;;;;;4957734;28;20626;-87
2022/07/04 05:15:49;;;;;;;4.03;3.53;;;;;;;;;;4948174;28;20451;-86
2022/07/04 05:18:15;;;;;;;3.50;3.27;;;;;;;;;;4952467;28;20482;-85
2022/07/04 05:20:46;;;;;;;3.23;3.17;;;;;;;;;;4942076;29;20494;-88
2022/07/04 05:23:13;;;;;;;3.47;3.27;;;;;;;;;;4946830;28;20488;-89
2022/07/04 05:25:39;;;;;;;3.97;3.60;;;;;;;;;;4944061;28;20449;-87
2022/07/04 05:28:05;;;;;;;3.13;2.93;;;;;;;;;;4954063;29;20453;-88
2022/07/04 05:30:32;;;;;;;4.53;3.20;;;;;;;;;;4961419;28;20493;-87
2022/07/04 05:33:00;;;;;;;3.90;3.60;;;;;;;;;;4951621;28;20454;-88
2022/07/04 05:35:27;;;;;;;5.60;3.60;;;;;;;;;;4940427;28;20506;-87
2022/07/04 05:38:06;;;;;;;4.10;3.77;;;;;;;;;;4940934;29;20481;-89
2022/07/04 05:43:21;;;;;;;5.43;3.73;;;;;;;;;;4952722;29;20433;-89
2022/07/04 05:46:22;;;;;;;3.63;3.53;;;;;;;;;;4952625;29;20422;-84
2022/07/04 05:48:48;;;;;;;6.30;5.73;;;;;;;;;;4938536;28;20460;-88
2022/07/04 05:51:14;;;;;;;6.33;3.90;;;;;;;;;;4942802;28;20423;-87
2022/07/04 05:53:41;;;;;;;3.97;3.67;;;;;;;;;;4955189;28;20498;-87
2022/07/04 05:56:07;;;;;;;4.17;3.87;;;;;;;;;;4964351;28;20421;-87
2022/07/04 05:58:33;;;;;;;4.90;4.50;;;;;;;;;;4940250;28;20484;-87
2022/07/04 06:00:59;;;;;;;3.87;3.57;;;;;;;;;;4955374;28;20425;-87
2022/07/04 06:03:25;;;;;;;3.87;3.70;;;;;;;;;;4940053;28;20440;-88
2022/07/04 06:05:56;;;;;;;4.10;3.87;;;;;;;;;;4949235;28;20421;-87
2022/07/04 06:08:23;;;;;;;5.20;4.07;;;;;;;;;;4947552;28;20469;-87
2022/07/04 06:10:50;;;;;;;5.20;4.03;;;;;;;;;;4966216;28;20467;-87
2022/07/04 06:13:18;;;;;;;4.13;3.83;;;;;;;;;;4956833;28;20484;-87
2022/07/04 06:15:44;;;;;;;5.23;3.83;;;;;;;;;;4939112;28;20529;-87
2022/07/04 06:18:10;;;;;;;4.30;3.97;;;;;;;;;;4938254;29;20466;-87
2022/07/04 06:20:45;;;;;;;5.40;4.27;;;;;;;;;;4947459;29;20475;-86
2022/07/04 06:23:11;;;;;;;4.17;3.87;;;;;;;;;;4944171;28;20425;-85
2022/07/04 06:25:37;;;;;;;6.23;5.77;;;;;;;;;;4921602;28;20905;-87
2022/07/04 06:28:04;;;;;;;4.07;3.77;;;;;;;;;;4959697;28;20440;-86
2022/07/04 06:30:30;;;;;;;4.03;3.63;;;;;;;;;;4963279;28;20437;-88
2022/07/04 06:32:56;;;;;;;3.27;3.17;;;;;;;;;;4977761;28;20445;-87
2022/07/04 06:38:18;;;;;;;2.60;2.60;;;;;;;;;;4938325;28;20996;-87
2022/07/04 06:40:44;;;;;;;3.37;3.00;;;;;;;;;;4961479;28;20908;-88
2022/07/04 06:43:10;;;;;;;3.00;2.90;;;;;;;;;;4946580;28;20539;-87
2022/07/04 06:45:36;;;;;;;3.17;2.97;;;;;;;;;;4954907;28;20410;-86
2022/07/04 06:48:06;;;;;;;3.23;3.03;;;;;;;;;;4950595;28;20487;-88
2022/07/04 06:50:33;;;;;;;2.90;2.80;;;;;;;;;;4928943;29;20449;-88
2022/07/04 06:53:03;;;;;;;3.43;3.20;;;;;;;;;;4933646;28;20510;-87
2022/07/04 06:55:29;;;;;;;2.40;2.30;;;;;;;;;;4591513;29;9999901;-88
2022/07/04 06:57:55;;;;;;;2.13;2.03;;;;;;;;;;4970582;28;20201;-87
2022/07/04 07:00:21;;;;;;;3.93;2.40;;;;;;;;;;4951617;28;20466;-88
2022/07/04 07:02:47;;;;;;;2.20;2.10;;;;;;;;;;4955261;28;20437;-88
2022/07/04 07:05:13;;;;;;;1.80;1.70;;;;;;;;;;4953998;28;20963;-87
2022/07/04 07:07:39;;;;;;;2.03;2.03;;;;;;;;;;4964328;28;20837;-88
2022/07/04 07:10:06;;;;;;;2.33;2.23;;;;;;;;;;4951045;28;20445;-88
2022/07/04 07:12:32;;;;;;;2.20;2.10;;;;;;;;;;4951011;28;20517;-89
2022/07/04 07:14:58;;;;;;;2.10;2.00;;;;;;;;;;4945300;29;20436;-86
2022/07/04 07:17:24;;;;;;;1.90;1.90;;;;;;;;;;4953676;28;20425;-86
2022/07/04 07:19:50;;;;;;;1.97;1.97;;;;;;;;;;4947554;28;20483;-87
2022/07/04 07:22:16;;;;;;;2.20;2.17;;;;;;;;;;4605888;28;10000084;-87
2022/07/04 07:24:42;;;;;;;2.53;2.37;;;;;;;;;;4956386;28;20186;-87
2022/07/04 07:27:08;;;;;;;2.87;2.77;;;;;;;;;;4949443;28;20776;-88
2022/07/04 07:29:35;;;;;;;2.70;2.70;;;;;;;;;;4932555;28;20489;-88
2022/07/04 07:32:01;;;;;;;3.23;2.97;;;;;;;;;;4957377;28;20433;-88
2022/07/04 07:34:27;;;;;;;2.47;2.27;;;;;;;;;;4943738;28;20450;-94
2022/07/04 07:36:54;;;;;;;2.10;2.00;;;;;;;;;;4949106;28;20446;-91
2022/07/04 07:39:20;;;;;;;2.10;2.00;;;;;;;;;;4940073;28;20478;-92
2022/07/04 07:41:46;;;;;;;2.60;2.40;;;;;;;;;;4956278;28;20441;-91
2022/07/04 07:44:19;;;;;;;7.30;2.83;;;;;;;;;;4961491;28;20445;-92
2022/07/04 07:46:45;;;;;;;2.67;2.57;;;;;;;;;;4936396;29;20438;-92
2022/07/04 07:49:11;;;;;;;3.07;2.27;;;;;;;;;;4950817;28;20548;-94
2022/07/04 07:51:40;;;;;;;2.53;2.43;;;;;;;;;;4945093;29;20959;-91
2022/07/04 07:54:13;;;;;;;3.10;1.70;;;;;;;;;;4961165;28;20450;-93
2022/07/04 07:56:46;;;;;;;1.47;1.40;;;;;;;;;;4975186;28;20430;-94
2022/07/04 07:59:29;;;;;;;2.70;1.90;;;;;;;;;;4965478;28;20468;-94
2022/07/04 08:02:00;;;;;;;1.33;1.13;;;;;;;;;;4946734;29;20466;-88
2022/07/04 08:04:35;;;;;;;3.10;1.87;;;;;;;;;;4953854;28;20421;-92
2022/07/04 08:07:09;;;;;;;1.20;1.20;;;;;;;;;;4958182;28;20548;-91
2022/07/04 08:09:38;;;;;;;1.13;1.13;;;;;;;;;;4957023;28;20451;-92
2022/07/04 08:12:08;;;;;;;1.60;1.50;;;;;;;;;;4965872;28;20445;-91
2022/07/04 08:14:34;;;;;;;1.27;1.27;;;;;;;;;;4964325;28;21161;-93
2022/07/04 08:17:00;;;;;;;1.60;1.50;;;;;;;;;;4969239;28;20448;-90
2022/07/04 08:19:27;;;;;;;1.47;1.37;;;;;;;;;;4971327;28;20477;-91
2022/07/04 08:21:53;;;;;;;1.07;1.07;;;;;;;;;;4985370;28;20453;-91
2022/07/04 08:24:22;;;;;;;1.23;1.23;;;;;;;;;;4963687;28;21066;-91
2022/07/04 08:26:48;;;;;;;1.00;1.00;;;;;;;;;;4960823;28;20451;-93
2022/07/04 08:29:14;;;;;;;1.10;1.10;;;;;;;;;;4946556;28;20458;-94
2022/07/04 08:31:40;;;;;;;4.73;1.80;;;;;;;;;;4973988;28;20433;-94
2022/07/04 08:34:09;;;;;;;2.03;1.17;;;;;;;;;;4599221;28;10000261;-94
2022/07/04 08:36:37;;;;;;;2.70;1.43;;;;;;;;;;4970576;28;20250;-91
2022/07/04 08:39:03;;;;;;;3.77;1.40;;;;;;;;;;4947668;29;20480;-91
2022/07/04 08:41:34;;;;;;;1.07;1.07;;;;;;;;;;4977579;28;20421;-93
2022/07/04 08:44:00;;;;;;;0.80;0.80;;;;;;;;;;4935132;29;20441;-91
2022/07/04 08:46:28;;;;;;;1.20;1.10;;;;;;;;;;4961340;28;20426;-93
2022/07/04 08:48:55;;;;;;;1.07;1.07;;;;;;;;;;4942059;29;20841;-92
2022/07/04 08:51:41;;;;;;;1.20;1.20;;;;;;;;;;4967078;28;20438;-94
2022/07/04 08:58:25;;;;;;;3.40;1.17;;;;;;;;;;4952536;28;20536;-91
2022/07/04 08:59:44;;;;;;;0.80;0.80;;;;;;;;;;4957742;28;20606;-91
2022/07/04 09:02:14;;;;;;;1.07;0.90;;;;;;;;;;4939623;28;20541;-92
2022/07/04 09:04:41;;;;;;;1.03;0.80;;;;;;;;;;4957280;29;20501;-90
2022/07/04 09:07:07;;;;;;;0.77;0.77;;;;;;;;;;4953266;28;20465;-89
2022/07/04 09:09:33;;;;;;;1.20;1.20;;;;;;;;;;4944445;29;20527;-88
2022/07/04 09:12:00;;;;;;;0.70;0.70;;;;;;;;;;4943445;29;20438;-91
2022/07/04 09:14:28;;;;;;;1.30;1.30;;;;;;;;;;4967399;29;20402;-94
2022/07/04 09:16:56;;;;;;;1.10;1.00;;;;;;;;;;4958281;29;20428;-93
2022/07/04 09:19:25;;;;;;;1.00;1.00;;;;;;;;;;4948572;29;20470;-93
2022/07/04 09:21:51;;;;;;;1.00;1.00;;;;;;;;;;4942915;29;20420;-90
2022/07/04 09:24:40;;;;;;;1.37;1.27;;;;;;;;;;4940441;29;20447;-91
2022/07/04 09:27:06;;;;;;;0.80;0.80;;;;;;;;;;4940181;29;20395;-90
2022/07/04 09:29:32;;;;;;;0.80;0.80;;;;;;;;;;4944887;29;20600;-88
2022/07/04 09:32:06;;;;;;;2.27;1.30;;;;;;;;;;4965055;29;20505;-91
2022/07/04 09:34:51;;;;;;;0.97;0.97;;;;;;;;;;4958647;29;20453;-91
2022/07/04 09:37:17;;;;;;;1.00;1.00;;;;;;;;;;4958864;29;20453;-91
2022/07/04 09:39:45;;;;;;;1.23;1.00;;;;;;;;;;4954333;29;20462;-91
2022/07/04 09:42:11;;;;;;;2.13;1.20;;;;;;;;;;4941682;29;20495;-87
2022/07/04 09:44:44;;;;;;;0.93;0.90;;;;;;;;;;4948059;29;20466;-92
2022/07/04 09:47:24;;;;;;;1.10;1.10;;;;;;;;;;4959585;29;20566;-90
2022/07/04 09:49:59;;;;;;;1.00;1.00;;;;;;;;;;4944288;29;20434;-92
2022/07/04 09:52:27;;;;;;;0.70;0.70;;;;;;;;;;4959183;29;21002;-91
2022/07/04 09:54:57;;;;;;;0.80;0.80;;;;;;;;;;4961666;29;20441;-92
2022/07/04 09:57:23;;;;;;;0.80;0.80;;;;;;;;;;4944212;29;20486;-90
2022/07/04 09:59:49;;;;;;;1.20;1.10;;;;;;;;;;4953205;29;20474;-93
2022/07/04 10:02:15;;;;;;;0.80;0.80;;;;;;;;;;4945075;29;20457;-92
2022/07/04 10:04:45;;;;;;;0.87;0.87;;;;;;;;;;4951157;29;20470;-93
2022/07/04 10:07:12;;;;;;;1.10;1.00;;;;;;;;;;4939728;29;20681;-92
2022/07/04 10:09:38;;;;;;;1.80;1.00;;;;;;;;;;4925401;29;20610;-93
2022/07/04 10:12:04;;;;;;;3.73;0.90;;;;;;;;;;4952174;29;20457;-94
2022/07/04 10:14:30;;;;;;;3.60;1.10;;;;;;;;;;4939398;29;21004;-93
2022/07/04 10:16:56;;;;;;;1.03;0.83;;;;;;;;;;4939446;29;20435;-94
2022/07/04 10:19:26;;;;;;;0.90;0.90;;;;;;;;;;4938202;29;20477;-92
2022/07/04 10:21:52;;;;;;;1.83;1.10;;;;;;;;;;4935691;29;20973;-90
2022/07/04 10:24:18;;;;;;;2.20;1.23;;;;;;;;;;4933733;29;20517;-92
2022/07/04 10:26:44;;;;;;;1.37;1.10;;;;;;;;;;4953381;29;20884;-90
2022/07/04 10:29:29;;;;;;;1.19;1.15;;;;;;;;;;4919764;29;10000968;-92
2022/07/04 10:31:55;;;;;;;2.13;2.03;;;;;;;;;;4952649;28;20454;-92
2022/07/04 10:34:21;;;;;;;1.20;1.20;;;;;;;;;;4936743;29;20821;-92
2022/07/04 10:36:53;;;;;;;3.80;1.50;;;;;;;;;;4944555;29;20422;-91
2022/07/04 10:39:24;;;;;;;1.37;1.10;;;;;;;;;;4935399;29;20476;-90
2022/07/04 10:42:01;;;;;;;2.10;1.33;;;;;;;;;;4939617;29;20433;-90
2022/07/04 10:44:37;;;;;;;1.00;1.00;;;;;;;;;;4938906;29;20431;-91
2022/07/04 10:47:03;;;;;;;1.10;1.00;;;;;;;;;;4935319;29;20600;-91
2022/07/04 10:49:29;;;;;;;0.60;0.60;;;;;;;;;;4946705;29;20469;-91
2022/07/04 10:51:56;;;;;;;1.43;1.40;;;;;;;;;;4941789;29;20410;-92
2022/07/04 10:54:29;;;;;;;1.80;1.37;;;;;;;;;;4945024;29;20478;-90
2022/07/04 10:57:09;;;;;;;1.60;1.50;;;;;;;;;;4947149;29;20589;-92
2022/07/04 10:59:35;;;;;;;0.90;0.90;;;;;;;;;;4946071;29;20470;-93
2022/07/04 11:02:04;;;;;;;1.20;1.10;;;;;;;;;;4952456;29;20508;-91
2022/07/04 11:04:49;;;;;;;1.60;1.40;;;;;;;;;;4951505;29;20784;-92
2022/07/04 11:07:18;;;;;;;1.37;1.30;;;;;;;;;;4939879;29;20410;-89
2022/07/04 11:09:45;;;;;;;2.70;1.50;;;;;;;;;;4959004;28;20425;-89
2022/07/04 11:12:14;;;;;;;1.63;1.53;;;;;;;;;;4961792;29;20414;-88
2022/07/04 11:14:41;;;;;;;1.60;1.50;;;;;;;;;;4969639;28;20530;-91
2022/07/04 11:17:21;;;;;;;1.20;1.10;;;;;;;;;;4971968;29;20454;-91
2022/07/04 11:19:48;;;;;;;1.73;1.63;;;;;;;;;;4971261;29;20549;-93
2022/07/04 11:22:22;;;;;;;3.20;1.80;;;;;;;;;;4969487;29;20418;-91
2022/07/04 11:24:48;;;;;;;1.67;1.57;;;;;;;;;;4932889;29;20426;-93
2022/07/04 11:27:15;;;;;;;1.67;1.50;;;;;;;;;;4969396;28;20438;-90
2022/07/04 11:30:12;;;;;;;1.53;1.50;;;;;;;;;;4989254;23;22328;-90
2022/07/04 11:32:41;;;;;;;1.80;1.70;;;;;;;;;;5004761;28;20488;-93
2022/07/04 11:35:07;;;;;;;1.77;1.77;;;;;;;;;;4991283;28;20428;-91
2022/07/04 11:37:37;;;;;;;1.53;1.53;;;;;;;;;;5009900;28;20456;-91
2022/07/04 11:45:53;;;;;;;2.77;1.40;;;;;;;;;;5013569;28;20494;-93
2022/07/04 11:48:40;;;;;;;2.90;2.43;;;;;;;;;;5010601;28;20441;-90
2022/07/04 11:51:16;;;;;;;1.80;1.70;;;;;;;;;;4991322;28;20434;-92
2022/07/04 11:56:18;;;;;;;2.40;1.63;;;;;;;;;;5015579;23;20525;-89
2022/07/04 11:58:47;;;;;;;1.30;1.30;;;;;;;;;;4978104;28;20488;-92
2022/07/04 12:01:27;;;;;;;1.70;1.50;;;;;;;;;;5014199;28;20443;-92
2022/07/04 12:04:14;;;;;;;1.80;1.80;;;;;;;;;;4977001;28;20446;-92
2022/07/04 12:06:41;;;;;;;3.03;1.60;;;;;;;;;;4972038;28;20430;-91
2022/07/04 12:09:07;;;;;;;1.30;1.30;;;;;;;;;;5011648;28;20460;-90
2022/07/04 12:11:54;;;;;;;1.10;1.10;;;;;;;;;;4996131;28;20422;-90
2022/07/04 12:14:24;;;;;;;1.13;1.13;;;;;;;;;;5013597;28;20436;-93
2022/07/04 12:17:18;;;;;;;1.47;1.47;;;;;;;;;;4996778;28;20416;-93
2022/07/04 12:20:22;;;;;;;2.67;1.40;;;;;;;;;;4983798;28;20535;-92
2022/07/04 12:23:31;;;;;;;;;;;;;;;;;;;;;
2022/07/04 12:26:16;;;;;;;1.00;1.00;;;;;;;;;;5013442;28;20628;-93
2022/07/04 12:28:49;;;;;;;1.80;1.70;;;;;;;;;;4955051;28;20432;-94
2022/07/04 12:31:16;;;;;;;3.13;1.47;;;;;;;;;;4990958;28;20425;-93
2022/07/04 12:33:55;;;;;;;1.50;1.50;;;;;;;;;;4993603;28;20486;-90
2022/07/04 12:36:29;;;;;;;1.38;1.30;;;;;;;;;;4510681;23;10002635;-92
2022/07/04 12:38:56;;;;;;;3.40;1.10;;;;;;;;;;4941957;29;20247;-93
2022/07/04 12:41:30;;;;;;;1.20;1.20;;;;;;;;;;4945214;29;20454;-94
2022/07/04 12:44:01;;;;;;;1.40;1.30;;;;;;;;;;4952191;28;20424;-92
2022/07/04 12:46:30;;;;;;;1.20;1.20;;;;;;;;;;4951960;28;20434;-90
2022/07/04 12:49:00;;;;;;;1.23;1.23;;;;;;;;;;4934576;28;20427;-89
2022/07/04 12:51:31;;;;;;;3.50;1.57;;;;;;;;;;4965317;29;21031;-93
2022/07/04 12:54:00;;;;;;;1.50;1.40;;;;;;;;;;4950458;29;20448;-91
2022/07/04 12:56:36;;;;;;;1.07;1.07;;;;;;;;;;4950224;29;20443;-94
2022/07/04 12:59:11;;;;;;;1.10;1.10;;;;;;;;;;4922364;29;20495;-92
2022/07/04 13:01:38;;;;;;;1.90;1.20;;;;;;;;;;4939787;29;20479;-90
2022/07/04 13:04:04;;;;;;;1.47;1.37;;;;;;;;;;4930272;29;20431;-90
2022/07/04 13:06:31;;;;;;;1.80;1.70;;;;;;;;;;4961491;28;20451;-92
2022/07/04 13:08:57;;;;;;;1.27;1.27;;;;;;;;;;4935798;29;20466;-91
2022/07/04 13:14:11;;;;;;;1.30;1.30;;;;;;;;;;4958500;29;20438;-91
2022/07/04 13:16:41;;;;;;;1.60;1.50;;;;;;;;;;4955046;29;20453;-92
2022/07/04 13:19:09;;;;;;;1.47;1.37;;;;;;;;;;4955909;29;20465;-88
2022/07/04 13:21:38;;;;;;;1.50;1.43;;;;;;;;;;4985598;28;20431;-88
2022/07/04 13:26:59;;;;;;;2.00;1.90;;;;;;;;;;5475072;23;20488;-89
2022/07/04 13:29:26;;;;;;;1.33;1.33;;;;;;;;;;4988716;28;20436;-92
2022/07/04 13:31:52;;;;;;;1.17;1.17;;;;;;;;;;5128074;23;20473;-91
2022/07/04 13:34:18;;;;;;;2.23;2.03;;;;;;;;;;4974710;28;20480;-92
2022/07/04 13:36:47;;;;;;;1.33;1.23;;;;;;;;;;4999409;28;20487;-90
2022/07/04 13:39:15;;;;;;;1.63;1.53;;;;;;;;;;4982922;28;20576;-92
2022/07/04 13:41:41;;;;;;;1.60;1.60;;;;;;;;;;4965344;28;20472;-92
2022/07/04 13:44:09;;;;;;;1.70;1.60;;;;;;;;;;4981945;28;20441;-89
2022/07/04 13:46:36;;;;;;;1.70;1.70;;;;;;;;;;4985254;28;20495;-92
2022/07/04 13:49:03;;;;;;;1.80;1.80;;;;;;;;;;4987251;28;20449;-88
2022/07/04 13:51:29;;;;;;;1.90;1.80;;;;;;;;;;4992565;28;20433;-90
2022/07/04 13:53:55;;;;;;;1.93;1.83;;;;;;;;;;4965348;28;20430;-91
2022/07/04 13:56:21;;;;;;;2.77;2.77;;;;;;;;;;5004562;28;20428;-89
2022/07/04 13:58:47;;;;;;;1.87;1.77;;;;;;;;;;4985412;28;20991;-89
2022/07/04 14:01:17;;;;;;;1.40;1.40;;;;;;;;;;4990022;28;20496;-92
2022/07/04 14:03:49;;;;;;;1.20;1.10;;;;;;;;;;5010930;28;20419;-91
2022/07/04 14:06:45;;;;;;;1.70;1.60;;;;;;;;;;4977810;28;20569;-94
2022/07/04 14:09:13;;;;;;;1.10;1.07;;;;;;;;;;4965044;28;20444;-92
2022/07/04 14:11:45;;;;;;;2.77;1.40;;;;;;;;;;5007376;28;20435;-91
2022/07/04 14:14:11;;;;;;;1.50;1.40;;;;;;;;;;4970215;28;20427;-90
2022/07/04 14:16:54;;;;;;;2.10;1.60;;;;;;;;;;4998969;28;20453;-90
2022/07/04 14:19:34;;;;;;;5.00;1.53;;;;;;;;;;4987471;28;20465;-90
2022/07/04 14:22:00;;;;;;;1.10;1.10;;;;;;;;;;4982575;28;20443;-90
2022/07/04 14:24:27;;;;;;;1.67;1.67;;;;;;;;;;4988399;28;20412;-91
2022/07/04 14:26:56;;;;;;;1.77;1.67;;;;;;;;;;4972127;28;20523;-92
2022/07/04 14:29:22;;;;;;;1.37;1.37;;;;;;;;;;4989468;28;20464;-89
2022/07/04 14:31:54;;;;;;;1.43;1.40;;;;;;;;;;4988619;28;20464;-93
2022/07/04 14:34:26;;;;;;;2.30;1.57;;;;;;;;;;4987586;28;20440;-90
2022/07/04 14:36:52;;;;;;;2.17;2.03;;;;;;;;;;4971417;28;20441;-88
2022/07/04 14:39:28;;;;;;;;;;;;;;;;;;;;;
2022/07/04 14:42:14;;;;;;;3.03;1.47;;;;;;;;;;5006491;28;20499;-91
2022/07/04 14:44:40;;;;;;;2.20;2.07;;;;;;;;;;4970506;28;21004;-88
2022/07/04 14:47:08;;;;;;;1.67;1.57;;;;;;;;;;5006663;28;20417;-91
2022/07/04 14:49:37;;;;;;;1.90;1.87;;;;;;;;;;4972824;28;20433;-91
2022/07/04 14:52:11;;;;;;;2.13;1.90;;;;;;;;;;4992014;28;20437;-90
2022/07/04 14:54:37;;;;;;;1.80;1.70;;;;;;;;;;4972502;29;20485;-90
2022/07/04 14:57:04;;;;;;;1.70;1.70;;;;;;;;;;5001768;28;20532;-91
2022/07/04 14:59:35;;;;;;;2.50;2.40;;;;;;;;;;4972364;28;20477;-91
2022/07/04 15:02:07;;;;;;;1.60;1.60;;;;;;;;;;4981813;28;20425;-91
2022/07/04 15:04:36;;;;;;;2.50;2.40;;;;;;;;;;4994729;28;20436;-90
2022/07/04 15:07:04;;;;;;;2.27;2.07;;;;;;;;;;4974970;28;20892;-87
2022/07/04 15:09:35;;;;;;;1.80;1.70;;;;;;;;;;4995787;28;20423;-88
2022/07/04 15:12:01;;;;;;;4.27;1.73;;;;;;;;;;4992586;28;20575;-87
2022/07/04 15:14:28;;;;;;;1.87;1.87;;;;;;;;;;4976740;28;20521;-86
2022/07/04 15:16:54;;;;;;;2.40;2.40;;;;;;;;;;4989805;28;20448;-89
2022/07/04 15:19:20;;;;;;;1.50;1.40;;;;;;;;;;4986644;28;20515;-91
2022/07/04 15:24:31;;;;;;;2.37;2.27;;;;;;;;;;4955267;28;20446;-89
2022/07/04 15:26:57;;;;;;;2.70;2.60;;;;;;;;;;4989998;28;20437;-90
2022/07/04 15:29:25;;;;;;;1.90;1.90;;;;;;;;;;4983105;28;20779;-88
2022/07/04 15:31:51;;;;;;;2.57;2.13;;;;;;;;;;4975958;28;20614;-91
2022/07/04 15:34:20;;;;;;;3.07;2.80;;;;;;;;;;4976554;28;20436;-86
2022/07/04 15:36:46;;;;;;;1.97;1.97;;;;;;;;;;4978492;28;20962;-88
2022/07/04 15:39:14;;;;;;;1.80;1.70;;;;;;;;;;4974535;28;20873;-87